createdAt,value
2022-12-03T00:02:14.933Z,45.60
2022-12-03T00:06:24.425Z,48.70
2022-12-03T00:10:32.400Z,49.50
2022-12-03T00:14:44.400Z,41.60
2022-12-03T00:18:53.017Z,37.40
2022-12-03T00:23:00.500Z,36.90
2022-12-03T00:27:10.011Z,36.00
2022-12-03T00:31:17.950Z,33.30
2022-12-03T00:35:25.973Z,40.00
2022-12-03T00:39:33.759Z,51.20
2022-12-03T00:43:41.624Z,49.60
2022-12-03T00:47:49.031Z,53.50
2022-12-03T00:51:56.910Z,43.30
2022-12-03T00:56:04.665Z,40.80
2022-12-03T01:00:14.825Z,40.70
2022-12-03T01:04:22.603Z,41.90
2022-12-03T01:08:30.195Z,43.10
2022-12-03T01:12:37.509Z,48.00
2022-12-03T01:16:46.485Z,54.60
2022-12-03T01:20:55.026Z,49.20
2022-12-03T01:25:03.647Z,46.20
2022-12-03T01:29:11.496Z,48.70
2022-12-03T01:33:19.385Z,47.60
2022-12-03T01:37:28.172Z,45.30
2022-12-03T01:41:37.082Z,57.20
2022-12-03T01:45:44.731Z,57.80
2022-12-03T01:49:55.580Z,47.00
2022-12-03T01:54:04.099Z,43.60
2022-12-03T01:58:14.280Z,43.70
2022-12-03T02:02:25.016Z,42.80
2022-12-03T02:06:33.574Z,45.60
2022-12-03T02:10:41.826Z,41.70
2022-12-03T02:14:49.867Z,59.90
2022-12-03T02:18:59.571Z,51.50
2022-12-03T02:23:12.428Z,53.40
2022-12-03T02:27:20.433Z,44.70
2022-12-03T02:31:28.149Z,39.30
2022-12-03T02:35:36.885Z,45.70
2022-12-03T02:39:47.988Z,40.50
2022-12-03T02:43:55.995Z,44.60
2022-12-03T02:48:10.410Z,56.50
2022-12-03T02:52:18.132Z,64.70
2022-12-03T02:56:28.144Z,45.50
2022-12-03T03:00:36.772Z,49.00
2022-12-03T03:04:44.947Z,44.30
2022-12-03T03:08:53.575Z,45.90
2022-12-03T03:13:02.200Z,45.70
2022-12-03T03:17:11.714Z,61.90
2022-12-03T03:21:22.305Z,58.20
2022-12-03T03:25:29.867Z,44.60
2022-12-03T03:29:40.388Z,44.80
2022-12-03T03:33:48.949Z,48.10
2022-12-03T03:38:00.157Z,35.20
2022-12-03T03:42:07.937Z,63.30
2022-12-03T03:46:15.740Z,62.50
2022-12-03T03:50:23.792Z,49.40
2022-12-03T03:54:32.049Z,47.10
2022-12-03T03:58:40.131Z,45.90
2022-12-03T04:02:49.456Z,39.40
2022-12-03T04:06:57.283Z,45.20
2022-12-03T04:11:22.558Z,66.70
2022-12-03T04:15:30.881Z,64.80
2022-12-03T04:19:39.491Z,54.90
2022-12-03T04:23:47.907Z,51.60
2022-12-03T04:28:13.363Z,44.80
2022-12-03T04:32:39.688Z,43.10
2022-12-03T04:36:47.956Z,44.90
2022-12-03T04:41:05.391Z,60.50
2022-12-03T04:45:14.386Z,59.10
2022-12-03T04:49:22.021Z,53.50
2022-12-03T04:53:29.850Z,43.10
2022-12-03T04:57:37.492Z,44.90
2022-12-03T05:01:45.630Z,43.80
2022-12-03T05:05:53.422Z,43.30
2022-12-03T05:10:01.322Z,40.30
2022-12-03T05:14:09.359Z,69.50
2022-12-03T05:18:19.976Z,67.60
2022-12-03T05:22:27.620Z,57.10
2022-12-03T05:26:35.201Z,43.00
2022-12-03T05:30:42.827Z,49.80
2022-12-03T05:34:51.247Z,47.80
2022-12-03T05:38:59.166Z,44.30
2022-12-03T05:43:07.862Z,41.60
2022-12-03T05:47:16.054Z,60.10
2022-12-03T05:51:24.184Z,68.80
2022-12-03T05:55:31.600Z,45.90
2022-12-03T05:59:39.777Z,44.20
2022-12-03T06:03:47.964Z,40.00
2022-12-03T06:07:56.410Z,43.10
2022-12-03T06:12:04.957Z,40.50
2022-12-03T06:16:12.911Z,35.10
2022-12-03T06:20:21.806Z,63.80
2022-12-03T06:24:29.697Z,59.20
2022-12-03T06:28:37.308Z,52.80
2022-12-03T06:32:44.864Z,49.20
2022-12-03T06:36:52.923Z,46.60
2022-12-03T06:41:00.644Z,40.00
2022-12-03T06:45:09.939Z,42.60
2022-12-03T06:49:17.416Z,45.00
2022-12-03T06:53:25.404Z,62.20
2022-12-03T06:57:32.849Z,63.60
2022-12-03T07:01:40.494Z,56.90
2022-12-03T07:05:48.288Z,47.40
2022-12-03T07:09:56.088Z,43.70
2022-12-03T07:14:06.606Z,40.10
2022-12-03T07:18:14.924Z,43.00
2022-12-03T07:22:22.575Z,40.60
2022-12-03T07:26:30.384Z,69.40
2022-12-03T07:30:38.710Z,61.00
2022-12-03T07:34:46.532Z,56.80
2022-12-03T07:38:54.514Z,44.30
2022-12-03T07:43:03.668Z,42.10
2022-12-03T07:47:11.178Z,44.10
2022-12-03T07:51:19.612Z,37.40
2022-12-03T07:55:27.056Z,44.10
2022-12-03T07:59:34.855Z,63.10
2022-12-03T08:03:43.468Z,57.70
2022-12-03T08:07:52.758Z,62.90
2022-12-03T08:12:03.500Z,46.10
2022-12-03T08:16:18.751Z,48.80
2022-12-03T08:20:30.550Z,43.60
2022-12-03T08:24:38.808Z,42.60
2022-12-03T08:28:46.637Z,58.80
2022-12-03T08:32:54.322Z,73.60
2022-12-03T08:37:19.979Z,51.10
2022-12-03T08:41:45.894Z,49.40
2022-12-03T08:45:55.255Z,45.50
2022-12-03T08:50:08.473Z,50.10
2022-12-03T08:54:19.680Z,43.80
2022-12-03T08:58:36.517Z,76.50
2022-12-03T09:02:49.986Z,74.80
2022-12-03T09:06:59.199Z,71.60
2022-12-03T09:11:07.913Z,55.00
2022-12-03T09:15:16.519Z,52.60
2022-12-03T09:19:24.362Z,55.40
2022-12-03T09:23:32.266Z,47.70
2022-12-03T09:27:40.097Z,49.20
2022-12-03T09:31:47.225Z,69.70
2022-12-03T09:35:54.886Z,81.20
2022-12-03T09:40:02.700Z,69.90
2022-12-03T09:44:17.466Z,58.50
2022-12-03T09:48:27.061Z,56.10
2022-12-03T09:52:36.508Z,54.10
2022-12-03T09:56:45.122Z,57.10
2022-12-03T10:00:54.766Z,54.00
2022-12-03T10:05:03.805Z,54.50
2022-12-03T10:09:14.939Z,72.90
2022-12-03T10:13:27.387Z,74.30
2022-12-03T10:17:35.419Z,72.70
2022-12-03T10:21:46.474Z,63.80
2022-12-03T10:25:56.144Z,57.40
2022-12-03T10:30:06.735Z,65.00
2022-12-03T10:34:14.721Z,60.30
2022-12-03T10:38:24.885Z,53.60
2022-12-03T10:42:34.543Z,81.60
2022-12-03T10:46:44.497Z,79.70
2022-12-03T10:50:54.243Z,69.90
2022-12-03T10:55:02.479Z,58.80
2022-12-03T10:59:13.312Z,58.90
2022-12-03T11:03:23.712Z,53.00
2022-12-03T11:11:58.065Z,77.90
2022-12-03T11:16:09.508Z,82.60
2022-12-03T11:21:06.928Z,62.30
2022-12-03T11:25:56.814Z,51.20
2022-12-03T11:30:05.582Z,64.50
2022-12-03T11:34:50.316Z,51.30
2022-12-03T11:39:00.361Z,96.40
2022-12-03T11:43:08.722Z,78.70
2022-12-03T11:47:19.234Z,59.10
2022-12-03T11:51:28.474Z,65.20
2022-12-03T11:55:38.472Z,66.20
2022-12-03T12:00:00.757Z,64.30
2022-12-03T12:04:10.074Z,61.00
2022-12-03T12:08:22.428Z,93.10
2022-12-03T12:12:33.606Z,86.90
2022-12-03T12:16:46.365Z,73.70
2022-12-03T12:25:41.543Z,64.10
2022-12-03T12:38:46.454Z,59.90
2022-12-03T12:42:57.712Z,92.50
2022-12-03T12:47:13.903Z,84.90
2022-12-03T12:55:48.375Z,65.50
2022-12-03T12:59:58.087Z,70.10
2022-12-03T13:04:13.862Z,78.10
2022-12-03T13:08:30.108Z,83.90
2022-12-03T13:12:37.859Z,85.40
2022-12-03T13:16:45.951Z,77.30
2022-12-03T13:20:54.309Z,76.80
2022-12-03T13:25:32.818Z,57.60
2022-12-03T13:29:47.463Z,67.90
2022-12-03T13:33:56.186Z,62.60
2022-12-03T13:38:04.279Z,91.80
2022-12-03T13:42:42.374Z,90.10
2022-12-03T13:46:50.287Z,76.90
2022-12-03T13:51:01.134Z,73.10
2022-12-03T13:55:12.475Z,70.20
2022-12-03T13:59:25.994Z,72.70
2022-12-03T14:03:34.301Z,73.60
2022-12-03T14:07:42.238Z,91.20
2022-12-03T14:12:09.478Z,78.80
2022-12-03T14:16:18.258Z,72.50
2022-12-03T14:20:26.323Z,78.30
2022-12-03T14:24:34.341Z,75.70
2022-12-03T14:28:42.649Z,67.60
2022-12-03T14:32:50.445Z,98.50
2022-12-03T14:36:58.843Z,109.50
2022-12-03T14:41:36.788Z,90.90
2022-12-03T14:45:44.823Z,77.30
2022-12-03T14:49:53.080Z,77.20
2022-12-03T14:54:01.030Z,80.80
2022-12-03T15:02:34.612Z,83.50
2022-12-03T15:06:42.791Z,115.10
2022-12-03T15:10:52.137Z,97.40
2022-12-03T15:14:59.949Z,84.50
2022-12-03T15:19:07.593Z,76.10
2022-12-03T15:23:14.963Z,78.20
2022-12-03T15:27:25.520Z,71.20
2022-12-03T15:31:33.509Z,71.50
2022-12-03T15:35:42.961Z,102.80
2022-12-03T15:39:50.762Z,87.30
2022-12-03T15:44:00.184Z,75.90
2022-12-03T15:48:09.221Z,71.20
2022-12-03T15:52:17.383Z,66.60
2022-12-03T15:56:25.688Z,66.50
2022-12-03T16:00:34.167Z,88.40
2022-12-03T16:04:52.471Z,89.80
2022-12-03T16:09:04.430Z,71.80
2022-12-03T16:13:12.814Z,67.90
2022-12-03T16:17:36.517Z,69.20
2022-12-03T16:21:44.595Z,59.50
2022-12-03T16:25:52.766Z,82.20
2022-12-03T16:30:02.367Z,72.20
2022-12-03T16:34:13.778Z,65.90
2022-12-03T16:38:22.498Z,59.00
2022-12-03T16:42:30.013Z,56.50
2022-12-03T16:46:38.043Z,56.30
2022-12-03T16:50:45.742Z,75.40
2022-12-03T16:54:53.563Z,69.30
2022-12-03T16:59:01.102Z,56.30
2022-12-03T17:03:08.543Z,60.50
2022-12-03T17:07:16.656Z,60.30
2022-12-03T17:11:25.446Z,55.70
2022-12-03T17:15:33.371Z,75.70
2022-12-03T17:19:41.588Z,74.30
2022-12-03T17:23:51.247Z,64.20
2022-12-03T17:28:00.149Z,65.50
2022-12-03T17:32:08.936Z,64.00
2022-12-03T17:36:17.000Z,52.40
2022-12-03T17:40:25.038Z,60.10
2022-12-03T17:44:32.846Z,79.40
2022-12-03T17:48:42.842Z,74.70
2022-12-03T17:52:50.774Z,62.60
2022-12-03T17:56:58.723Z,61.40
2022-12-03T18:01:08.913Z,59.80
2022-12-03T18:05:16.635Z,68.60
2022-12-03T18:09:24.415Z,81.00
2022-12-03T18:13:32.304Z,75.10
2022-12-03T18:17:40.402Z,69.90
2022-12-03T18:21:48.336Z,66.80
2022-12-03T18:25:56.617Z,66.90
2022-12-03T18:30:05.375Z,71.00
2022-12-03T18:34:13.199Z,81.40
2022-12-03T18:38:21.477Z,75.40
2022-12-03T18:42:31.101Z,70.70
2022-12-03T18:46:53.495Z,71.10
2022-12-03T18:51:02.183Z,71.90
2022-12-03T18:55:12.371Z,73.20
2022-12-03T18:59:19.841Z,78.90
2022-12-03T19:03:27.889Z,91.30
2022-12-03T19:07:35.867Z,87.90
2022-12-03T19:11:43.526Z,86.10
2022-12-03T19:15:52.092Z,77.00
2022-12-03T19:19:59.615Z,78.20
2022-12-03T19:24:24.245Z,77.30
2022-12-03T19:28:33.267Z,73.30
2022-12-03T19:32:41.228Z,99.40
2022-12-03T19:36:48.942Z,89.80
2022-12-03T19:41:03.847Z,77.90
2022-12-03T19:45:13.103Z,74.60
2022-12-03T19:49:22.728Z,82.70
2022-12-03T19:53:32.012Z,79.20
2022-12-03T19:57:40.702Z,98.70
2022-12-03T20:01:48.336Z,98.40
2022-12-03T20:05:56.124Z,91.50
2022-12-03T20:10:04.571Z,92.30
2022-12-03T20:14:15.554Z,86.30
2022-12-03T20:18:23.626Z,82.90
2022-12-03T20:22:31.568Z,89.50
2022-12-03T20:26:43.061Z,124.10
2022-12-03T20:31:01.307Z,122.60
2022-12-03T20:35:09.995Z,118.10
2022-12-03T20:39:18.437Z,103.90
2022-12-03T20:43:25.942Z,105.90
2022-12-03T20:47:33.362Z,111.00
2022-12-03T20:51:42.992Z,115.60
2022-12-03T20:55:58.401Z,140.10
2022-12-03T21:00:09.662Z,142.50
2022-12-03T21:04:18.376Z,134.00
2022-12-03T21:08:40.492Z,111.70
2022-12-03T21:12:49.097Z,106.60
2022-12-03T21:17:08.471Z,113.00
2022-12-03T21:21:19.884Z,119.10
2022-12-03T21:25:27.476Z,138.40
2022-12-03T21:29:36.261Z,143.90
2022-12-03T21:33:44.622Z,141.10
2022-12-03T21:37:52.873Z,111.70
2022-12-03T21:42:34.883Z,107.50
2022-12-03T21:47:11.640Z,125.50
2022-12-03T21:51:09.088Z,100.50
2022-12-03T21:55:17.544Z,165.00
2022-12-03T21:59:25.479Z,148.30
2022-12-03T22:03:34.618Z,130.00
2022-12-03T22:07:43.864Z,115.20
2022-12-03T22:11:51.749Z,119.80
2022-12-03T22:15:59.493Z,113.50
2022-12-03T22:20:09.628Z,102.20
2022-12-03T22:24:18.975Z,151.80
2022-12-03T22:28:26.435Z,138.90
2022-12-03T22:32:34.442Z,124.70
2022-12-03T22:36:42.852Z,112.00
2022-12-03T22:40:50.612Z,104.70
2022-12-03T22:44:58.357Z,132.80
2022-12-03T22:49:07.651Z,164.70
2022-12-03T22:53:15.931Z,122.20
2022-12-03T22:57:23.910Z,120.10
2022-12-03T23:01:34.018Z,111.90
2022-12-03T23:05:42.527Z,103.90
2022-12-03T23:09:50.306Z,139.90
2022-12-03T23:13:59.286Z,127.90
2022-12-03T23:18:07.173Z,121.70
2022-12-03T23:22:14.708Z,119.20
2022-12-03T23:26:22.379Z,108.60
2022-12-03T23:30:30.311Z,117.50
2022-12-03T23:34:39.233Z,92.50
2022-12-03T23:38:47.078Z,140.30
2022-12-03T23:42:55.272Z,141.20
2022-12-03T23:47:04.033Z,116.70
2022-12-03T23:51:15.260Z,109.70
2022-12-03T23:55:24.120Z,117.20
2022-12-03T23:59:31.669Z,98.60
